Time;durP1;ratioP1;P1;durP2;ratioP2;P2;SDS_P1;SDS_P2;PMS_P1;PMS_P2;Temp;Humidity;BMP_temperature;BMP_pressure;BME280_temperature;BME280_humidity;BME280_pressure;Samples;Min_cycle;Max_cycle;Signal;HPM_P1;HPM_P2
2022/07/29 00:00:44;;;;;;;3.67;1.30;;;19.30;51.30;;;;;;5092943;28;20028;-39
2022/07/29 00:03:10;;;;;;;5.95;1.25;;;19.30;51.30;;;;;;5093300;28;20103;-39
2022/07/29 00:05:36;;;;;;;1.77;0.90;;;19.30;51.30;;;;;;5092914;28;20028;-39
2022/07/29 00:08:01;;;;;;;3.28;1.27;;;19.30;51.40;;;;;;5092094;28;20028;-39
2022/07/29 00:10:27;;;;;;;1.75;1.10;;;19.30;51.30;;;;;;5092971;28;20024;-39
2022/07/29 00:12:53;;;;;;;2.40;0.77;;;19.30;51.40;;;;;;5092852;28;20480;-39
2022/07/29 00:15:18;;;;;;;2.80;0.98;;;19.20;51.50;;;;;;5091630;28;20017;-39
2022/07/29 00:17:44;;;;;;;1.90;1.02;;;19.20;51.50;;;;;;5093066;28;20036;-39
2022/07/29 00:20:10;;;;;;;1.67;1.05;;;19.20;51.60;;;;;;5092918;28;20016;-39
2022/07/29 00:22:39;;;;;;;1.67;0.95;;;19.20;51.50;;;;;;5092779;28;20488;-40
2022/07/29 00:25:06;;;;;;;4.07;1.40;;;19.20;51.50;;;;;;5092925;28;20028;-40
2022/07/29 00:27:32;;;;;;;1.40;1.13;;;19.20;51.50;;;;;;5092649;28;20028;-39
2022/07/29 00:29:58;;;;;;;3.45;1.70;;;19.20;51.60;;;;;;5092595;28;20069;-39
2022/07/29 00:32:23;;;;;;;4.13;1.25;;;19.10;51.60;;;;;;5093688;28;20129;-39
2022/07/29 00:37:33;;;;;;;2.13;1.15;;;19.10;51.80;;;;;;5096881;28;20074;-39
2022/07/29 00:39:58;;;;;;;2.60;1.20;;;19.10;51.80;;;;;;5096384;28;20028;-40
2022/07/29 00:42:24;;;;;;;1.25;0.90;;;19.10;51.80;;;;;;5096554;28;20055;-39
2022/07/29 00:44:50;;;;;;;6.80;0.98;;;19.10;51.90;;;;;;5096111;28;20053;-39
2022/07/29 00:47:15;;;;;;;4.68;1.25;;;19.10;51.90;;;;;;5096722;28;20348;-39
2022/07/29 00:49:42;;;;;;;1.55;1.17;;;19.10;52.10;;;;;;5096788;28;20448;-39
2022/07/29 00:52:09;;;;;;;6.10;1.25;;;19.00;52.40;;;;;;5096371;28;20024;-39
2022/07/29 00:54:35;;;;;;;3.33;1.13;;;19.00;52.40;;;;;;5096281;28;20028;-38
2022/07/29 00:57:01;;;;;;;3.55;1.08;;;18.90;52.50;;;;;;5096212;28;20020;-39
2022/07/29 00:59:27;;;;;;;3.35;1.13;;;18.90;52.60;;;;;;5096061;28;20035;-38
2022/07/29 01:01:53;;;;;;;3.50;0.85;;;18.80;52.80;;;;;;5096298;28;20108;-40
2022/07/29 01:04:23;;;;;;;2.50;1.20;;;18.80;52.90;;;;;;5095866;28;20032;-46
2022/07/29 01:06:50;;;;;;;1.70;0.80;;;18.80;53.00;;;;;;5096002;28;20020;-38
2022/07/29 01:09:18;;;;;;;0.80;0.80;;;18.80;53.20;;;;;;5096148;28;20085;-38
2022/07/29 01:11:44;;;;;;;1.13;1.00;;;18.70;53.30;;;;;;5096275;28;20031;-39
2022/07/29 01:14:11;;;;;;;1.83;0.93;;;18.60;53.50;;;;;;5095747;28;20491;-38
2022/07/29 01:16:46;;;;;;;5.07;1.17;;;18.70;53.60;;;;;;5095764;28;20027;-39
2022/07/29 01:19:40;;;;;;;2.63;1.13;;;18.60;53.70;;;;;;5095963;28;20024;-38
2022/07/29 01:22:19;;;;;;;5.90;0.95;;;18.60;53.80;;;;;;5065941;28;20028;-39
2022/07/29 01:25:00;;;;;;;7.30;1.27;;;18.50;54.10;;;;;;5095522;28;20035;-39
2022/07/29 01:27:37;;;;;;;;;;;18.50;54.20;;;;;;5096253;28;20100;-38
2022/07/29 01:30:03;;;;;;;1.95;1.08;;;18.40;54.40;;;;;;5095807;28;20205;-50
2022/07/29 01:32:36;;;;;;;2.38;1.00;;;18.40;54.50;;;;;;5095816;28;20106;-39
2022/07/29 01:35:06;;;;;;;2.83;1.02;;;18.40;54.60;;;;;;5095509;28;20377;-37
2022/07/29 01:37:43;;;;;;;8.00;2.75;;;18.40;54.70;;;;;;5095975;28;20024;-38
2022/07/29 01:40:19;;;;;;;5.65;1.55;;;18.30;55.10;;;;;;5095608;28;20028;-38
2022/07/29 01:42:50;;;;;;;9.55;1.27;;;18.40;55.00;;;;;;5095624;28;20039;-38
2022/07/29 01:45:21;;;;;;;1.83;0.93;;;18.30;55.10;;;;;;5094982;28;20044;-38
2022/07/29 01:48:14;;;;;;;5.90;1.25;;;18.30;55.20;;;;;;5095564;28;20047;-38
2022/07/29 01:51:02;;;;;;;3.80;1.58;;;18.30;55.40;;;;;;5095278;28;20501;-40
2022/07/29 01:53:55;;;;;;;3.80;1.25;;;18.30;55.40;;;;;;5093327;28;20028;-38
2022/07/29 01:56:24;;;;;;;7.70;1.33;;;18.30;55.40;;;;;;5094619;28;20066;-39
2022/07/29 01:58:52;;;;;;;2.70;1.13;;;18.20;55.70;;;;;;5095135;28;20118;-40
2022/07/29 02:01:18;;;;;;;5.07;0.88;;;18.20;55.70;;;;;;5094125;28;20465;-38
2022/07/29 02:03:45;;;;;;;7.45;1.40;;;18.20;55.70;;;;;;5094077;28;20146;-40
2022/07/29 02:06:13;;;;;;;1.10;1.00;;;18.20;55.90;;;;;;5094874;28;20020;-38
2022/07/29 02:08:40;;;;;;;3.65;1.52;;;18.30;55.80;;;;;;5095042;28;20480;-38
2022/07/29 02:11:08;;;;;;;7.68;1.85;;;18.20;55.80;;;;;;5095363;28;20023;-38
2022/07/29 02:13:36;;;;;;;3.70;1.42;;;18.20;56.00;;;;;;5095944;28;20349;-38
2022/07/29 02:16:06;;;;;;;3.80;1.00;;;18.20;56.00;;;;;;5096696;28;20106;-39
2022/07/29 02:18:35;;;;;;;6.85;1.05;;;18.20;56.00;;;;;;5096867;28;20043;-39
2022/07/29 02:21:02;;;;;;;4.97;1.90;;;18.10;56.10;;;;;;5096915;28;20413;-43
2022/07/29 02:23:30;;;;;;;2.90;1.15;;;18.20;56.20;;;;;;5096488;28;20028;-39
2022/07/29 02:25:57;;;;;;;5.13;1.52;;;18.10;56.30;;;;;;5096224;28;20024;-50
2022/07/29 02:28:26;;;;;;;2.15;0.98;;;18.10;56.40;;;;;;5095207;28;20027;-43
2022/07/29 02:30:54;;;;;;;2.22;1.20;;;18.10;56.60;;;;;;5095463;28;20020;-41
2022/07/29 02:33:21;;;;;;;4.25;1.52;;;18.10;56.60;;;;;;5095478;28;20384;-39
2022/07/29 02:35:49;;;;;;;1.23;1.13;;;18.10;56.70;;;;;;5095656;28;20088;-40
2022/07/29 02:41:04;;;;;;;4.85;1.15;;;18.20;56.60;;;;;;5095444;28;20101;-39
2022/07/29 02:43:31;;;;;;;3.38;1.23;;;18.20;56.40;;;;;;5095891;28;20035;-38
2022/07/29 02:45:58;;;;;;;2.50;1.17;;;18.10;56.50;;;;;;5094604;28;20055;-38
2022/07/29 02:48:36;;;;;;;4.40;1.10;;;18.10;56.60;;;;;;5076895;28;20028;-41
2022/07/29 02:51:19;;;;;;;2.00;0.90;;;18.00;56.90;;;;;;5095008;28;20103;-39
2022/07/29 02:53:48;;;;;;;15.30;1.67;;;18.00;57.20;;;;;;5094463;28;20025;-40
2022/07/29 02:56:18;;;;;;;5.83;1.97;;;17.90;57.30;;;;;;5094464;28;20024;-40
2022/07/29 02:58:53;;;;;;;2.97;1.58;;;17.90;57.50;;;;;;5095000;28;20809;-39
2022/07/29 03:01:32;;;;;;;4.97;1.50;;;17.80;57.60;;;;;;5094504;28;20059;-39
2022/07/29 03:04:01;;;;;;;7.75;1.27;;;17.80;57.80;;;;;;5093455;28;20055;-39
2022/07/29 03:06:28;;;;;;;4.07;1.30;;;17.80;57.80;;;;;;5094306;28;20023;-39
2022/07/29 03:08:55;;;;;;;9.50;1.30;;;17.80;57.90;;;;;;5093952;28;20101;-39
2022/07/29 03:11:21;;;;;;;3.97;1.33;;;17.80;58.00;;;;;;5094049;28;20024;-39
2022/07/29 03:13:48;;;;;;;2.45;1.00;;;17.80;57.90;;;;;;5076496;28;20526;-39
2022/07/29 03:16:14;;;;;;;0.90;0.90;;;17.80;57.80;;;;;;5094835;28;20083;-38
2022/07/29 03:18:40;;;;;;;1.15;0.85;;;17.80;57.70;;;;;;5093945;28;20042;-39
2022/07/29 03:21:06;;;;;;;3.63;1.00;;;17.80;57.70;;;;;;5093754;28;20414;-39
2022/07/29 03:23:31;;;;;;;2.60;0.82;;;17.80;57.70;;;;;;5093774;28;20024;-39
2022/07/29 03:25:57;;;;;;;3.28;1.10;;;17.80;57.70;;;;;;5093683;28;20024;-39
2022/07/29 03:28:24;;;;;;;5.57;2.05;;;17.80;57.70;;;;;;5093440;28;20020;-38
2022/07/29 03:30:50;;;;;;;6.38;1.55;;;17.80;57.80;;;;;;5093544;28;20020;-39
2022/07/29 03:33:16;;;;;;;4.32;1.08;;;17.90;57.90;;;;;;5093496;28;20020;-38
2022/07/29 03:35:42;;;;;;;5.50;2.28;;;17.90;57.80;;;;;;5094061;28;20460;-39
2022/07/29 03:38:07;;;;;;;3.50;1.17;;;17.90;57.80;;;;;;5093589;28;20077;-40
2022/07/29 19:48:40;;;;;;;11.38;4.38;;;21.00;62.10;;;;;;5071347;28;20408;-39
2022/07/29 19:51:06;;;;;;;5.22;3.10;;;21.00;62.40;;;;;;5070268;28;20025;-38
2022/07/29 19:53:32;;;;;;;7.10;4.40;;;20.90;61.80;;;;;;5070397;28;20032;-39
2022/07/29 19:55:58;;;;;;;10.27;3.88;;;21.00;61.00;;;;;;5070682;28;20013;-38
2022/07/29 19:58:24;;;;;;;9.43;3.58;;;21.00;60.80;;;;;;5070331;28;20020;-38
2022/07/29 20:00:49;;;;;;;9.77;3.45;;;21.10;61.30;;;;;;5070302;28;20020;-38
2022/07/29 20:03:15;;;;;;;10.07;3.88;;;21.00;61.50;;;;;;5070191;28;20033;-39
2022/07/29 20:05:41;;;;;;;5.68;3.60;;;20.90;61.00;;;;;;5068977;28;20102;-39
2022/07/29 20:08:08;;;;;;;6.20;3.47;;;20.80;62.30;;;;;;5070435;28;20079;-38
2022/07/29 20:10:33;;;;;;;7.45;4.88;;;20.80;63.10;;;;;;5070315;28;20507;-38
2022/07/29 20:12:59;;;;;;;6.53;3.25;;;20.80;64.00;;;;;;5070281;28;20024;-38
2022/07/29 20:15:25;;;;;;;9.07;3.90;;;20.70;64.50;;;;;;5070228;28;20024;-39
2022/07/29 20:17:51;;;;;;;6.10;3.08;;;20.50;65.30;;;;;;5070409;28;20060;-39
2022/07/29 20:20:16;;;;;;;7.18;3.00;;;20.30;65.50;;;;;;5070449;28;20473;-38
2022/07/29 20:22:43;;;;;;;10.77;7.50;;;20.30;65.60;;;;;;5070350;28;20032;-39
2022/07/29 20:25:10;;;;;;;10.95;5.90;;;20.30;65.80;;;;;;5069849;28;20382;-39
2022/07/29 20:27:39;;;;;;;6.18;3.60;;;20.20;66.00;;;;;;5069620;28;20082;-40
2022/07/29 20:30:05;;;;;;;8.85;3.30;;;20.10;66.30;;;;;;5070117;28;20108;-39
2022/07/29 20:32:31;;;;;;;5.07;3.22;;;20.10;66.60;;;;;;5068920;28;20029;-41
2022/07/29 20:34:57;;;;;;;5.35;3.15;;;20.10;67.00;;;;;;5068700;28;20028;-39
2022/07/29 20:37:22;;;;;;;7.53;3.58;;;20.10;67.40;;;;;;5070311;28;20115;-39
2022/07/29 20:39:48;;;;;;;9.75;3.75;;;20.00;67.60;;;;;;5070583;28;20162;-40
2022/07/29 20:42:17;;;;;;;7.28;3.88;;;19.90;67.60;;;;;;5069775;28;20028;-38
2022/07/29 20:44:43;;;;;;;7.68;4.63;;;19.90;67.90;;;;;;5070492;28;20021;-38
2022/07/29 20:47:08;;;;;;;8.20;3.88;;;19.90;68.20;;;;;;5069860;28;20060;-39
2022/07/29 20:49:35;;;;;;;6.90;4.25;;;19.90;68.30;;;;;;5069893;28;20013;-39
2022/07/29 20:52:01;;;;;;;9.85;3.55;;;19.80;68.40;;;;;;5069677;28;20027;-39
2022/07/29 20:54:27;;;;;;;3.90;3.10;;;19.70;68.70;;;;;;5069608;28;20048;-40
2022/07/29 20:56:52;;;;;;;8.18;3.40;;;19.60;69.10;;;;;;5070340;28;20031;-40
2022/07/29 20:59:18;;;;;;;7.97;4.30;;;19.50;69.70;;;;;;5060953;28;20029;-46
2022/07/29 21:01:44;;;;;;;4.30;3.50;;;19.40;69.60;;;;;;5057125;28;20021;-39
2022/07/29 21:04:10;;;;;;;7.03;3.85;;;19.40;69.60;;;;;;5058099;28;20385;-39
2022/07/29 21:06:36;;;;;;;8.98;3.78;;;19.40;69.50;;;;;;5056824;28;20078;-39
2022/07/29 21:09:02;;;;;;;5.65;3.28;;;19.40;69.40;;;;;;5056258;28;20167;-38
2022/07/29 21:11:28;;;;;;;4.75;3.25;;;19.40;69.40;;;;;;5056658;28;20017;-38
2022/07/29 21:13:53;;;;;;;7.88;3.60;;;19.50;69.70;;;;;;5056259;28;20048;-39
2022/07/29 21:16:19;;;;;;;10.10;4.32;;;19.40;69.90;;;;;;5056193;28;20025;-47
2022/07/29 21:18:46;;;;;;;11.82;3.45;;;19.40;70.20;;;;;;5056464;28;20022;-39
2022/07/29 21:21:15;;;;;;;6.50;3.47;;;19.30;70.60;;;;;;5057953;28;20029;-41
2022/07/29 21:23:42;;;;;;;5.07;4.57;;;19.30;71.10;;;;;;5055741;28;20055;-46
2022/07/29 21:26:09;;;;;;;5.55;3.00;;;19.30;71.70;;;;;;5056413;28;20017;-38
2022/07/29 21:28:39;;;;;;;8.30;3.85;;;19.20;72.00;;;;;;5037593;28;20033;-39
2022/07/29 21:31:09;;;;;;;5.85;3.03;;;19.10;72.40;;;;;;5054507;28;20021;-39
2022/07/29 21:33:38;;;;;;;4.50;3.58;;;19.10;72.40;;;;;;5037856;28;20025;-38
2022/07/29 21:36:05;;;;;;;7.03;3.60;;;19.00;73.10;;;;;;5054220;28;20468;-39
2022/07/29 21:38:31;;;;;;;5.72;3.65;;;18.90;73.90;;;;;;5055085;28;20036;-39
2022/07/29 21:40:57;;;;;;;8.15;3.80;;;18.80;74.30;;;;;;5054999;28;20025;-39
2022/07/29 21:43:25;;;;;;;5.70;3.95;;;18.80;74.20;;;;;;5054816;28;20036;-39
2022/07/29 21:45:51;;;;;;;5.45;3.53;;;18.80;74.30;;;;;;5054877;28;20021;-40
2022/07/29 21:48:18;;;;;;;6.10;3.55;;;18.60;74.10;;;;;;5053401;28;20045;-39
2022/07/29 21:50:45;;;;;;;8.32;4.47;;;18.60;74.80;;;;;;5055258;28;20131;-38
2022/07/29 21:53:13;;;;;;;9.10;3.75;;;18.60;74.80;;;;;;5053879;28;20036;-40
2022/07/29 21:55:39;;;;;;;7.20;4.18;;;18.60;74.90;;;;;;5053645;28;20025;-39
2022/07/29 21:58:06;;;;;;;8.25;4.40;;;18.60;74.70;;;;;;5055510;28;20051;-39
2022/07/29 22:00:33;;;;;;;8.57;4.28;;;18.70;74.60;;;;;;5053465;28;20112;-38
2022/07/29 22:03:00;;;;;;;9.98;4.57;;;18.80;74.50;;;;;;5053363;28;20032;-39
2022/07/29 22:05:26;;;;;;;8.80;5.28;;;18.80;74.30;;;;;;5053884;28;20040;-38
2022/07/29 22:07:52;;;;;;;13.40;4.78;;;18.80;74.30;;;;;;5054516;28;20068;-46
2022/07/29 22:10:17;;;;;;;11.32;5.15;;;18.80;74.20;;;;;;5053402;28;20048;-39
2022/07/29 22:12:43;;;;;;;6.75;4.40;;;18.80;73.90;;;;;;5054739;28;20096;-39
2022/07/29 22:15:10;;;;;;;8.02;4.45;;;18.90;73.30;;;;;;5054365;28;20381;-39
2022/07/29 22:17:39;;;;;;;8.18;5.18;;;18.90;73.00;;;;;;5054264;28;20028;-39
2022/07/29 22:20:05;;;;;;;5.05;4.55;;;18.90;73.30;;;;;;5054556;28;20523;-39
2022/07/29 22:22:31;;;;;;;6.90;4.15;;;18.90;73.20;;;;;;5054301;28;20025;-38
2022/07/29 22:24:57;;;;;;;10.15;5.03;;;18.90;73.40;;;;;;5054006;28;20031;-38
2022/07/29 22:27:23;;;;;;;6.70;4.22;;;18.90;73.40;;;;;;5053912;28;20029;-38
2022/07/29 22:29:48;;;;;;;8.55;4.70;;;18.90;72.90;;;;;;5052668;28;20452;-38
2022/07/29 22:32:14;;;;;;;7.05;4.00;;;19.00;72.20;;;;;;5053967;28;20421;-40
2022/07/29 22:34:40;;;;;;;8.10;4.05;;;19.10;71.60;;;;;;5054416;28;20029;-38
2022/07/29 22:37:05;;;;;;;7.88;4.78;;;19.10;71.40;;;;;;5054610;28;20033;-39
2022/07/29 22:39:31;;;;;;;6.43;4.72;;;19.00;71.90;;;;;;5054170;28;20393;-39
2022/07/29 22:41:56;;;;;;;9.43;4.65;;;19.00;71.80;;;;;;5054107;28;20106;-39
2022/07/29 22:44:22;;;;;;;9.52;4.18;;;19.00;72.20;;;;;;5053787;28;20029;-39
2022/07/29 22:46:48;;;;;;;8.20;3.85;;;18.90;72.40;;;;;;5053543;28;20497;-39
2022/07/29 22:49:13;;;;;;;8.93;4.13;;;18.80;72.30;;;;;;5053813;28;20098;-38
2022/07/29 22:51:39;;;;;;;7.32;4.50;;;18.80;72.70;;;;;;5036238;28;20029;-38
2022/07/29 22:54:05;;;;;;;7.85;4.40;;;18.80;73.00;;;;;;5052649;28;20071;-39
2022/07/29 22:56:31;;;;;;;7.90;5.10;;;18.70;73.40;;;;;;5053658;28;20100;-39
2022/07/29 22:58:56;;;;;;;8.88;4.15;;;18.60;73.70;;;;;;5053567;28;20021;-39
2022/07/29 23:01:23;;;;;;;5.20;4.38;;;18.50;74.20;;;;;;5054007;28;20025;-39
2022/07/29 23:03:49;;;;;;;6.50;4.13;;;18.30;74.70;;;;;;5053583;28;20115;-38
2022/07/29 23:06:15;;;;;;;11.15;3.85;;;18.30;74.90;;;;;;5053614;28;20056;-38
2022/07/29 23:08:40;;;;;;;7.03;4.53;;;18.30;74.60;;;;;;5053707;28;20033;-40
2022/07/29 23:11:06;;;;;;;11.43;4.65;;;18.20;74.70;;;;;;5053299;28;20048;-38
2022/07/29 23:13:32;;;;;;;9.95;4.93;;;18.30;74.40;;;;;;5053217;28;20061;-39
2022/07/29 23:15:58;;;;;;;9.70;6.65;;;18.30;74.40;;;;;;5053434;28;20017;-39
2022/07/29 23:18:24;;;;;;;8.02;4.70;;;18.30;74.40;;;;;;5053541;28;20473;-39
2022/07/29 23:20:49;;;;;;;6.35;4.85;;;18.30;74.30;;;;;;5053140;28;20033;-39
2022/07/29 23:23:15;;;;;;;7.10;5.40;;;18.30;73.80;;;;;;5052799;28;20071;-39
2022/07/29 23:25:41;;;;;;;14.70;5.53;;;18.40;73.50;;;;;;5053316;28;20346;-39
2022/07/29 23:28:07;;;;;;;12.27;5.13;;;18.30;73.70;;;;;;5053032;28;20113;-38
2022/07/29 23:30:34;;;;;;;7.60;5.35;;;18.40;73.30;;;;;;5051733;28;20444;-39
2022/07/29 23:32:59;;;;;;;7.40;5.32;;;18.30;73.80;;;;;;5052978;28;20025;-38
2022/07/29 23:35:25;;;;;;;6.95;5.68;;;18.30;73.50;;;;;;5053305;28;20031;-38
2022/07/29 23:37:51;;;;;;;9.18;4.80;;;18.30;73.60;;;;;;5053126;28;20048;-39
2022/07/29 23:40:17;;;;;;;10.45;4.65;;;18.30;73.70;;;;;;5053189;28;20021;-39
2022/07/29 23:42:43;;;;;;;9.13;5.13;;;18.30;73.30;;;;;;5053257;28;20072;-39
2022/07/29 23:45:11;;;;;;;8.55;4.97;;;18.20;73.60;;;;;;5053808;28;20025;-48
2022/07/29 23:47:37;;;;;;;6.25;4.88;;;18.20;73.50;;;;;;5052742;28;20045;-45
2022/07/29 23:50:04;;;;;;;6.50;4.00;;;18.20;73.60;;;;;;5051569;28;20032;-37
2022/07/29 23:52:30;;;;;;;7.13;4.45;;;18.10;73.40;;;;;;5052820;28;20040;-40
2022/07/29 23:54:55;;;;;;;11.07;5.45;;;18.10;73.50;;;;;;5052685;28;20021;-38
2022/07/29 23:57:25;;;;;;;9.52;4.93;;;18.10;73.80;;;;;;5051550;28;20021;-40
2022/07/29 23:59:51;;;;;;;11.05;4.80;;;18.00;74.10;;;;;;5052941;28;20027;-38
